sensor_id;sensor_type;location;lat;lon;timestamp;P1;durP1;ratioP1;P2;durP2;ratioP2
39728;SDS011;25402;42.004;23.088;2023-04-01T00:00:36;12.15;;;4.40;;
39728;SDS011;25402;42.004;23.088;2023-04-01T00:03:02;18.38;;;4.57;;
39728;SDS011;25402;42.004;23.088;2023-04-01T00:05:30;10.30;;;5.00;;
39728;SDS011;25402;42.004;23.088;2023-04-01T00:07:56;11.15;;;5.55;;
39728;SDS011;25402;42.004;23.088;2023-04-01T00:10:23;15.38;;;6.05;;
39728;SDS011;25402;42.004;23.088;2023-04-01T00:12:49;12.45;;;6.05;;
39728;SDS011;25402;42.004;23.088;2023-04-01T00:15:16;15.50;;;5.88;;
39728;SDS011;25402;42.004;23.088;2023-04-01T00:17:44;15.60;;;5.22;;
39728;SDS011;25402;42.004;23.088;2023-04-01T00:20:11;8.02;;;3.45;;
39728;SDS011;25402;42.004;23.088;2023-04-01T00:22:39;10.48;;;3.63;;
39728;SDS011;25402;42.004;23.088;2023-04-01T00:25:06;12.73;;;4.05;;
39728;SDS011;25402;42.004;23.088;2023-04-01T00:27:33;7.60;;;3.45;;
39728;SDS011;25402;42.004;23.088;2023-04-01T00:29:59;11.85;;;2.92;;
39728;SDS011;25402;42.004;23.088;2023-04-01T00:32:26;13.35;;;4.00;;
39728;SDS011;25402;42.004;23.088;2023-04-01T00:34:54;11.30;;;3.78;;
39728;SDS011;25402;42.004;23.088;2023-04-01T00:37:20;8.77;;;3.65;;
39728;SDS011;25402;42.004;23.088;2023-04-01T00:39:48;9.23;;;3.40;;
39728;SDS011;25402;42.004;23.088;2023-04-01T00:42:14;9.70;;;3.83;;
39728;SDS011;25402;42.004;23.088;2023-04-01T00:44:41;10.80;;;4.03;;
39728;SDS011;25402;42.004;23.088;2023-04-01T00:47:07;9.88;;;3.80;;
39728;SDS011;25402;42.004;23.088;2023-04-01T00:49:35;11.98;;;4.10;;
39728;SDS011;25402;42.004;23.088;2023-04-01T00:52:04;14.10;;;4.90;;
39728;SDS011;25402;42.004;23.088;2023-04-01T00:54:31;10.52;;;4.97;;
39728;SDS011;25402;42.004;23.088;2023-04-01T00:56:59;15.05;;;4.75;;
39728;SDS011;25402;42.004;23.088;2023-04-01T00:59:27;12.70;;;4.10;;
39728;SDS011;25402;42.004;23.088;2023-04-01T01:01:55;10.27;;;3.60;;
39728;SDS011;25402;42.004;23.088;2023-04-01T01:04:23;35.38;;;13.07;;
39728;SDS011;25402;42.004;23.088;2023-04-01T01:06:52;37.72;;;17.88;;
39728;SDS011;25402;42.004;23.088;2023-04-01T01:09:25;47.03;;;27.00;;
39728;SDS011;25402;42.004;23.088;2023-04-01T01:14:24;11.18;;;4.47;;
39728;SDS011;25402;42.004;23.088;2023-04-01T01:16:54;16.85;;;5.03;;
39728;SDS011;25402;42.004;23.088;2023-04-01T01:19:45;11.57;;;5.00;;
39728;SDS011;25402;42.004;23.088;2023-04-01T01:25:06;10.45;;;4.50;;
39728;SDS011;25402;42.004;23.088;2023-04-01T01:27:34;12.90;;;3.80;;
39728;SDS011;25402;42.004;23.088;2023-04-01T01:30:08;8.27;;;3.75;;
39728;SDS011;25402;42.004;23.088;2023-04-01T01:35:22;11.13;;;3.50;;
39728;SDS011;25402;42.004;23.088;2023-04-01T01:37:51;8.57;;;3.45;;
39728;SDS011;25402;42.004;23.088;2023-04-01T01:40:19;8.02;;;3.72;;
39728;SDS011;25402;42.004;23.088;2023-04-01T01:42:46;10.30;;;3.72;;
39728;SDS011;25402;42.004;23.088;2023-04-01T01:45:14;9.50;;;4.43;;
39728;SDS011;25402;42.004;23.088;2023-04-01T01:47:43;13.15;;;4.43;;
39728;SDS011;25402;42.004;23.088;2023-04-01T01:50:10;10.60;;;4.25;;
39728;SDS011;25402;42.004;23.088;2023-04-01T01:52:38;10.57;;;3.58;;
39728;SDS011;25402;42.004;23.088;2023-04-01T01:57:46;8.00;;;3.63;;
39728;SDS011;25402;42.004;23.088;2023-04-01T02:00:14;12.73;;;3.92;;
39728;SDS011;25402;42.004;23.088;2023-04-01T02:02:41;11.90;;;3.63;;
39728;SDS011;25402;42.004;23.088;2023-04-01T02:05:09;8.02;;;3.45;;
39728;SDS011;25402;42.004;23.088;2023-04-01T02:07:41;8.95;;;3.38;;
39728;SDS011;25402;42.004;23.088;2023-04-01T02:10:09;14.98;;;3.30;;
39728;SDS011;25402;42.004;23.088;2023-04-01T02:12:36;7.40;;;3.28;;
39728;SDS011;25402;42.004;23.088;2023-04-01T02:15:05;9.55;;;3.47;;
39728;SDS011;25402;42.004;23.088;2023-04-01T02:17:33;9.68;;;3.50;;
39728;SDS011;25402;42.004;23.088;2023-04-01T02:20:01;8.32;;;3.08;;
39728;SDS011;25402;42.004;23.088;2023-04-01T02:22:29;10.63;;;3.38;;
39728;SDS011;25402;42.004;23.088;2023-04-01T02:25:01;8.40;;;3.20;;
39728;SDS011;25402;42.004;23.088;2023-04-01T02:27:28;12.85;;;3.00;;
39728;SDS011;25402;42.004;23.088;2023-04-01T02:29:56;10.57;;;3.80;;
39728;SDS011;25402;42.004;23.088;2023-04-01T02:32:23;8.43;;;3.47;;
39728;SDS011;25402;42.004;23.088;2023-04-01T02:34:51;11.43;;;3.17;;
39728;SDS011;25402;42.004;23.088;2023-04-01T02:37:18;5.38;;;2.80;;
39728;SDS011;25402;42.004;23.088;2023-04-01T02:39:44;14.25;;;2.60;;
39728;SDS011;25402;42.004;23.088;2023-04-01T02:42:12;11.40;;;3.15;;
39728;SDS011;25402;42.004;23.088;2023-04-01T02:44:39;8.30;;;3.13;;
39728;SDS011;25402;42.004;23.088;2023-04-01T02:47:06;7.30;;;2.67;;
39728;SDS011;25402;42.004;23.088;2023-04-01T02:49:32;5.93;;;3.00;;
39728;SDS011;25402;42.004;23.088;2023-04-01T02:51:59;8.57;;;2.30;;
39728;SDS011;25402;42.004;23.088;2023-04-01T02:54:26;6.70;;;2.50;;
39728;SDS011;25402;42.004;23.088;2023-04-01T02:56:52;5.97;;;2.60;;
39728;SDS011;25402;42.004;23.088;2023-04-01T02:59:20;8.48;;;2.95;;
39728;SDS011;25402;42.004;23.088;2023-04-01T03:01:47;8.35;;;2.40;;
39728;SDS011;25402;42.004;23.088;2023-04-01T03:04:13;14.68;;;2.92;;
39728;SDS011;25402;42.004;23.088;2023-04-01T03:06:40;11.07;;;2.70;;
39728;SDS011;25402;42.004;23.088;2023-04-01T03:09:07;12.13;;;2.80;;
39728;SDS011;25402;42.004;23.088;2023-04-01T03:11:34;15.57;;;3.10;;
39728;SDS011;25402;42.004;23.088;2023-04-01T03:14:00;10.25;;;3.33;;
39728;SDS011;25402;42.004;23.088;2023-04-01T03:16:28;9.63;;;3.08;;
39728;SDS011;25402;42.004;23.088;2023-04-01T03:18:55;12.50;;;2.67;;
39728;SDS011;25402;42.004;23.088;2023-04-01T03:21:24;8.65;;;3.40;;
39728;SDS011;25402;42.004;23.088;2023-04-01T03:23:50;8.75;;;3.40;;
39728;SDS011;25402;42.004;23.088;2023-04-01T03:26:17;10.32;;;3.53;;
39728;SDS011;25402;42.004;23.088;2023-04-01T03:28:44;13.90;;;3.60;;
39728;SDS011;25402;42.004;23.088;2023-04-01T03:31:11;11.43;;;3.53;;
39728;SDS011;25402;42.004;23.088;2023-04-01T03:33:39;11.32;;;3.90;;
39728;SDS011;25402;42.004;23.088;2023-04-01T03:36:05;16.23;;;4.38;;
39728;SDS011;25402;42.004;23.088;2023-04-01T03:38:32;11.68;;;3.53;;
39728;SDS011;25402;42.004;23.088;2023-04-01T03:40:59;6.65;;;3.20;;
39728;SDS011;25402;42.004;23.088;2023-04-01T03:43:25;9.75;;;3.22;;
39728;SDS011;25402;42.004;23.088;2023-04-01T03:45:52;9.38;;;3.45;;
39728;SDS011;25402;42.004;23.088;2023-04-01T03:48:19;10.32;;;3.28;;
39728;SDS011;25402;42.004;23.088;2023-04-01T03:50:48;10.20;;;3.60;;
39728;SDS011;25402;42.004;23.088;2023-04-01T03:53:14;9.40;;;3.33;;
39728;SDS011;25402;42.004;23.088;2023-04-01T03:55:41;8.50;;;3.45;;
39728;SDS011;25402;42.004;23.088;2023-04-01T03:58:08;19.80;;;3.20;;
39728;SDS011;25402;42.004;23.088;2023-04-01T04:00:34;13.43;;;4.03;;
39728;SDS011;25402;42.004;23.088;2023-04-01T04:03:01;12.23;;;3.35;;
39728;SDS011;25402;42.004;23.088;2023-04-01T04:05:28;10.90;;;3.58;;
39728;SDS011;25402;42.004;23.088;2023-04-01T04:07:56;15.48;;;3.42;;
39728;SDS011;25402;42.004;23.088;2023-04-01T04:10:22;9.95;;;3.13;;
39728;SDS011;25402;42.004;23.088;2023-04-01T04:12:50;11.48;;;3.38;;
39728;SDS011;25402;42.004;23.088;2023-04-01T04:15:16;7.55;;;3.25;;
39728;SDS011;25402;42.004;23.088;2023-04-01T04:17:43;7.80;;;3.10;;
39728;SDS011;25402;42.004;23.088;2023-04-01T04:20:10;10.25;;;3.08;;
39728;SDS011;25402;42.004;23.088;2023-04-01T04:22:36;8.05;;;3.05;;
39728;SDS011;25402;42.004;23.088;2023-04-01T04:25:05;13.45;;;2.90;;
39728;SDS011;25402;42.004;23.088;2023-04-01T04:27:32;12.20;;;3.13;;
39728;SDS011;25402;42.004;23.088;2023-04-01T04:29:59;8.20;;;2.90;;
39728;SDS011;25402;42.004;23.088;2023-04-01T04:32:25;12.88;;;2.97;;
39728;SDS011;25402;42.004;23.088;2023-04-01T04:34:52;11.93;;;3.03;;
39728;SDS011;25402;42.004;23.088;2023-04-01T04:37:18;10.70;;;3.42;;
39728;SDS011;25402;42.004;23.088;2023-04-01T04:39:45;11.93;;;3.38;;
39728;SDS011;25402;42.004;23.088;2023-04-01T04:42:13;10.82;;;3.53;;
39728;SDS011;25402;42.004;23.088;2023-04-01T04:44:40;18.70;;;3.10;;
39728;SDS011;25402;42.004;23.088;2023-04-01T04:47:06;6.28;;;3.30;;
39728;SDS011;25402;42.004;23.088;2023-04-01T04:49:33;16.65;;;3.65;;
39728;SDS011;25402;42.004;23.088;2023-04-01T04:51:59;10.43;;;3.22;;
39728;SDS011;25402;42.004;23.088;2023-04-01T04:54:26;12.30;;;3.72;;
39728;SDS011;25402;42.004;23.088;2023-04-01T04:56:52;9.80;;;3.33;;
39728;SDS011;25402;42.004;23.088;2023-04-01T04:59:21;20.00;;;3.17;;
39728;SDS011;25402;42.004;23.088;2023-04-01T05:01:47;8.48;;;2.97;;
39728;SDS011;25402;42.004;23.088;2023-04-01T05:04:14;8.05;;;2.40;;
39728;SDS011;25402;42.004;23.088;2023-04-01T05:06:42;6.30;;;2.88;;
39728;SDS011;25402;42.004;23.088;2023-04-01T05:09:09;8.23;;;2.75;;
39728;SDS011;25402;42.004;23.088;2023-04-01T05:11:35;12.00;;;2.90;;
39728;SDS011;25402;42.004;23.088;2023-04-01T05:14:02;13.98;;;3.22;;
39728;SDS011;25402;42.004;23.088;2023-04-01T05:16:30;9.20;;;3.60;;
39728;SDS011;25402;42.004;23.088;2023-04-01T05:18:56;12.90;;;3.33;;
39728;SDS011;25402;42.004;23.088;2023-04-01T05:21:23;18.92;;;3.50;;
39728;SDS011;25402;42.004;23.088;2023-04-01T05:23:50;7.10;;;2.92;;
39728;SDS011;25402;42.004;23.088;2023-04-01T05:26:17;12.18;;;3.05;;
39728;SDS011;25402;42.004;23.088;2023-04-01T05:28:43;11.70;;;3.10;;
39728;SDS011;25402;42.004;23.088;2023-04-01T05:31:10;17.27;;;3.38;;
39728;SDS011;25402;42.004;23.088;2023-04-01T05:33:38;9.15;;;3.97;;
39728;SDS011;25402;42.004;23.088;2023-04-01T05:36:05;9.25;;;3.10;;
39728;SDS011;25402;42.004;23.088;2023-04-01T05:38:32;19.30;;;3.30;;
39728;SDS011;25402;42.004;23.088;2023-04-01T05:41:00;7.38;;;3.22;;
39728;SDS011;25402;42.004;23.088;2023-04-01T05:43:26;10.02;;;2.97;;
39728;SDS011;25402;42.004;23.088;2023-04-01T05:45:53;8.50;;;3.53;;
39728;SDS011;25402;42.004;23.088;2023-04-01T05:48:19;10.88;;;3.35;;
39728;SDS011;25402;42.004;23.088;2023-04-01T05:50:47;9.18;;;3.50;;
39728;SDS011;25402;42.004;23.088;2023-04-01T05:53:14;8.55;;;3.33;;
39728;SDS011;25402;42.004;23.088;2023-04-01T05:55:40;6.43;;;2.80;;
39728;SDS011;25402;42.004;23.088;2023-04-01T05:58:07;11.40;;;3.70;;
39728;SDS011;25402;42.004;23.088;2023-04-01T06:00:34;11.95;;;3.67;;
39728;SDS011;25402;42.004;23.088;2023-04-01T06:03:00;10.18;;;3.38;;
39728;SDS011;25402;42.004;23.088;2023-04-01T06:05:27;11.35;;;3.35;;
39728;SDS011;25402;42.004;23.088;2023-04-01T06:07:58;8.32;;;2.95;;
39728;SDS011;25402;42.004;23.088;2023-04-01T06:10:26;14.32;;;4.07;;
39728;SDS011;25402;42.004;23.088;2023-04-01T06:13:00;10.70;;;3.28;;
39728;SDS011;25402;42.004;23.088;2023-04-01T06:15:32;11.75;;;3.10;;
39728;SDS011;25402;42.004;23.088;2023-04-01T06:20:46;13.63;;;3.13;;
39728;SDS011;25402;42.004;23.088;2023-04-01T06:23:27;8.15;;;2.92;;
39728;SDS011;25402;42.004;23.088;2023-04-01T06:25:59;11.02;;;3.17;;
39728;SDS011;25402;42.004;23.088;2023-04-01T06:28:46;7.50;;;2.50;;
39728;SDS011;25402;42.004;23.088;2023-04-01T06:31:20;10.75;;;3.20;;
39728;SDS011;25402;42.004;23.088;2023-04-01T06:33:54;10.95;;;2.55;;
39728;SDS011;25402;42.004;23.088;2023-04-01T06:39:18;9.05;;;2.90;;
39728;SDS011;25402;42.004;23.088;2023-04-01T06:41:58;8.02;;;3.10;;
39728;SDS011;25402;42.004;23.088;2023-04-01T06:44:29;11.73;;;2.72;;
39728;SDS011;25402;42.004;23.088;2023-04-01T06:46:57;262.08;;;12.93;;
39728;SDS011;25402;42.004;23.088;2023-04-01T06:49:28;54.33;;;4.75;;
39728;SDS011;25402;42.004;23.088;2023-04-01T06:52:00;19.73;;;3.15;;
39728;SDS011;25402;42.004;23.088;2023-04-01T06:54:38;9.45;;;2.65;;
39728;SDS011;25402;42.004;23.088;2023-04-01T06:57:09;18.00;;;3.22;;
39728;SDS011;25402;42.004;23.088;2023-04-01T07:02:12;7.85;;;2.13;;
39728;SDS011;25402;42.004;23.088;2023-04-01T07:04:43;9.63;;;2.28;;
39728;SDS011;25402;42.004;23.088;2023-04-01T07:07:12;14.48;;;2.92;;
39728;SDS011;25402;42.004;23.088;2023-04-01T07:09:43;9.13;;;2.33;;
39728;SDS011;25402;42.004;23.088;2023-04-01T07:12:15;12.15;;;2.47;;
39728;SDS011;25402;42.004;23.088;2023-04-01T07:14:45;9.15;;;2.90;;
39728;SDS011;25402;42.004;23.088;2023-04-01T07:17:14;8.15;;;2.90;;
39728;SDS011;25402;42.004;23.088;2023-04-01T07:19:42;15.88;;;3.03;;
39728;SDS011;25402;42.004;23.088;2023-04-01T07:22:14;9.50;;;3.20;;
39728;SDS011;25402;42.004;23.088;2023-04-01T07:24:45;5.20;;;2.80;;
39728;SDS011;25402;42.004;23.088;2023-04-01T07:27:12;32.97;;;4.38;;
39728;SDS011;25402;42.004;23.088;2023-04-01T07:29:39;12.63;;;3.20;;
39728;SDS011;25402;42.004;23.088;2023-04-01T07:32:12;96.60;;;6.65;;
39728;SDS011;25402;42.004;23.088;2023-04-01T07:34:42;7.82;;;2.40;;
39728;SDS011;25402;42.004;23.088;2023-04-01T07:37:12;8.52;;;3.00;;
39728;SDS011;25402;42.004;23.088;2023-04-01T07:39:41;8.18;;;2.80;;
39728;SDS011;25402;42.004;23.088;2023-04-01T07:42:13;7.70;;;3.08;;
39728;SDS011;25402;42.004;23.088;2023-04-01T07:44:44;15.33;;;3.10;;
39728;SDS011;25402;42.004;23.088;2023-04-01T07:47:18;9.80;;;3.05;;
39728;SDS011;25402;42.004;23.088;2023-04-01T07:49:49;6.55;;;2.70;;
39728;SDS011;25402;42.004;23.088;2023-04-01T07:52:21;11.25;;;3.40;;
39728;SDS011;25402;42.004;23.088;2023-04-01T07:54:49;11.25;;;3.58;;
39728;SDS011;25402;42.004;23.088;2023-04-01T07:57:19;9.45;;;2.85;;
39728;SDS011;25402;42.004;23.088;2023-04-01T07:59:49;9.95;;;3.13;;
39728;SDS011;25402;42.004;23.088;2023-04-01T08:02:22;18.80;;;2.75;;
39728;SDS011;25402;42.004;23.088;2023-04-01T08:04:53;38.03;;;3.60;;
39728;SDS011;25402;42.004;23.088;2023-04-01T08:07:23;9.85;;;2.95;;
39728;SDS011;25402;42.004;23.088;2023-04-01T08:09:51;10.70;;;2.70;;
39728;SDS011;25402;42.004;23.088;2023-04-01T08:12:24;43.47;;;4.88;;
39728;SDS011;25402;42.004;23.088;2023-04-01T08:14:56;20.83;;;3.28;;
39728;SDS011;25402;42.004;23.088;2023-04-01T08:17:27;15.40;;;2.95;;
39728;SDS011;25402;42.004;23.088;2023-04-01T08:19:58;9.43;;;2.65;;
39728;SDS011;25402;42.004;23.088;2023-04-01T08:22:29;9.07;;;2.50;;
39728;SDS011;25402;42.004;23.088;2023-04-01T08:24:57;7.32;;;2.22;;
39728;SDS011;25402;42.004;23.088;2023-04-01T08:27:34;7.65;;;3.00;;
39728;SDS011;25402;42.004;23.088;2023-04-01T08:30:02;7.13;;;2.45;;
39728;SDS011;25402;42.004;23.088;2023-04-01T08:32:32;19.45;;;3.25;;
39728;SDS011;25402;42.004;23.088;2023-04-01T08:35:02;11.10;;;2.90;;
39728;SDS011;25402;42.004;23.088;2023-04-01T08:37:33;10.68;;;2.47;;
39728;SDS011;25402;42.004;23.088;2023-04-01T08:40:02;9.65;;;2.40;;
39728;SDS011;25402;42.004;23.088;2023-04-01T08:45:23;15.73;;;2.42;;
39728;SDS011;25402;42.004;23.088;2023-04-01T08:53:19;9.40;;;2.53;;
39728;SDS011;25402;42.004;23.088;2023-04-01T08:55:51;17.23;;;2.75;;
39728;SDS011;25402;42.004;23.088;2023-04-01T09:01:13;15.15;;;3.00;;
39728;SDS011;25402;42.004;23.088;2023-04-01T09:03:43;30.58;;;3.25;;
39728;SDS011;25402;42.004;23.088;2023-04-01T09:06:25;10.70;;;2.80;;
39728;SDS011;25402;42.004;23.088;2023-04-01T09:09:02;13.10;;;2.17;;
39728;SDS011;25402;42.004;23.088;2023-04-01T09:11:34;13.35;;;2.90;;
39728;SDS011;25402;42.004;23.088;2023-04-01T09:14:12;15.02;;;2.60;;
39728;SDS011;25402;42.004;23.088;2023-04-01T09:16:53;9.18;;;3.10;;
39728;SDS011;25402;42.004;23.088;2023-04-01T09:19:24;9.80;;;2.05;;
39728;SDS011;25402;42.004;23.088;2023-04-01T09:21:58;12.02;;;2.80;;
39728;SDS011;25402;42.004;23.088;2023-04-01T09:24:41;11.15;;;2.88;;
39728;SDS011;25402;42.004;23.088;2023-04-01T09:27:10;16.77;;;2.67;;
39728;SDS011;25402;42.004;23.088;2023-04-01T09:32:31;12.80;;;2.72;;
39728;SDS011;25402;42.004;23.088;2023-04-01T09:35:06;19.30;;;2.40;;
39728;SDS011;25402;42.004;23.088;2023-04-01T09:37:40;12.05;;;2.25;;
39728;SDS011;25402;42.004;23.088;2023-04-01T09:40:09;15.10;;;2.63;;
39728;SDS011;25402;42.004;23.088;2023-04-01T09:42:43;14.63;;;2.53;;
39728;SDS011;25402;42.004;23.088;2023-04-01T09:45:15;15.00;;;2.75;;
39728;SDS011;25402;42.004;23.088;2023-04-01T09:47:50;7.18;;;2.17;;
39728;SDS011;25402;42.004;23.088;2023-04-01T09:50:27;8.10;;;2.25;;
39728;SDS011;25402;42.004;23.088;2023-04-01T09:52:57;20.48;;;2.40;;
39728;SDS011;25402;42.004;23.088;2023-04-01T09:55:46;9.75;;;2.20;;
39728;SDS011;25402;42.004;23.088;2023-04-01T09:58:22;9.57;;;2.88;;
39728;SDS011;25402;42.004;23.088;2023-04-01T10:06:30;12.88;;;2.50;;
39728;SDS011;25402;42.004;23.088;2023-04-01T10:09:22;18.83;;;2.65;;
39728;SDS011;25402;42.004;23.088;2023-04-01T10:12:00;10.43;;;2.20;;
39728;SDS011;25402;42.004;23.088;2023-04-01T10:14:44;11.48;;;2.65;;
39728;SDS011;25402;42.004;23.088;2023-04-01T10:17:31;15.82;;;3.03;;
39728;SDS011;25402;42.004;23.088;2023-04-01T10:20:12;11.25;;;2.50;;
39728;SDS011;25402;42.004;23.088;2023-04-01T10:25:29;9.60;;;2.33;;
39728;SDS011;25402;42.004;23.088;2023-04-01T10:30:50;8.32;;;2.53;;
39728;SDS011;25402;42.004;23.088;2023-04-01T10:39:12;7.90;;;2.70;;
39728;SDS011;25402;42.004;23.088;2023-04-01T10:44:37;10.95;;;2.40;;
39728;SDS011;25402;42.004;23.088;2023-04-01T10:50:02;11.30;;;2.38;;
39728;SDS011;25402;42.004;23.088;2023-04-01T10:52:47;14.13;;;2.50;;
39728;SDS011;25402;42.004;23.088;2023-04-01T10:55:24;12.80;;;2.80;;
39728;SDS011;25402;42.004;23.088;2023-04-01T10:58:01;18.55;;;2.90;;
39728;SDS011;25402;42.004;23.088;2023-04-01T11:08:59;11.68;;;2.58;;
39728;SDS011;25402;42.004;23.088;2023-04-01T11:11:46;10.32;;;2.33;;
39728;SDS011;25402;42.004;23.088;2023-04-01T11:14:30;9.48;;;2.67;;
39728;SDS011;25402;42.004;23.088;2023-04-01T11:19:56;11.88;;;2.20;;
39728;SDS011;25402;42.004;23.088;2023-04-01T11:22:34;7.32;;;2.83;;
39728;SDS011;25402;42.004;23.088;2023-04-01T11:25:11;8.85;;;2.58;;
39728;SDS011;25402;42.004;23.088;2023-04-01T11:27:54;6.90;;;2.20;;
39728;SDS011;25402;42.004;23.088;2023-04-01T11:30:26;12.65;;;2.70;;
39728;SDS011;25402;42.004;23.088;2023-04-01T11:32:54;11.98;;;2.30;;
39728;SDS011;25402;42.004;23.088;2023-04-01T11:38:08;10.68;;;2.47;;
39728;SDS011;25402;42.004;23.088;2023-04-01T11:40:40;24.23;;;2.53;;
39728;SDS011;25402;42.004;23.088;2023-04-01T11:43:12;27.35;;;2.90;;
39728;SDS011;25402;42.004;23.088;2023-04-01T11:45:43;11.18;;;2.38;;
39728;SDS011;25402;42.004;23.088;2023-04-01T11:48:28;7.65;;;2.40;;
39728;SDS011;25402;42.004;23.088;2023-04-01T11:51:06;19.38;;;2.55;;
39728;SDS011;25402;42.004;23.088;2023-04-01T11:53:41;7.90;;;2.53;;
39728;SDS011;25402;42.004;23.088;2023-04-01T11:56:13;15.07;;;2.53;;
39728;SDS011;25402;42.004;23.088;2023-04-01T12:01:29;10.45;;;2.60;;
39728;SDS011;25402;42.004;23.088;2023-04-01T12:04:16;14.48;;;2.58;;
39728;SDS011;25402;42.004;23.088;2023-04-01T12:06:48;8.30;;;2.63;;
39728;SDS011;25402;42.004;23.088;2023-04-01T12:09:18;21.40;;;2.70;;
39728;SDS011;25402;42.004;23.088;2023-04-01T12:11:50;10.05;;;2.30;;
39728;SDS011;25402;42.004;23.088;2023-04-01T12:14:19;15.18;;;2.95;;
39728;SDS011;25402;42.004;23.088;2023-04-01T12:16:51;9.50;;;2.42;;
39728;SDS011;25402;42.004;23.088;2023-04-01T12:19:23;11.50;;;2.35;;
39728;SDS011;25402;42.004;23.088;2023-04-01T12:21:56;9.90;;;2.90;;
39728;SDS011;25402;42.004;23.088;2023-04-01T12:24:45;7.05;;;2.60;;
39728;SDS011;25402;42.004;23.088;2023-04-01T12:27:22;8.07;;;3.03;;
39728;SDS011;25402;42.004;23.088;2023-04-01T12:32:46;9.85;;;2.75;;
39728;SDS011;25402;42.004;23.088;2023-04-01T12:35:20;7.70;;;3.08;;
39728;SDS011;25402;42.004;23.088;2023-04-01T12:38:01;12.70;;;3.30;;
39728;SDS011;25402;42.004;23.088;2023-04-01T12:43:18;13.00;;;3.35;;
39728;SDS011;25402;42.004;23.088;2023-04-01T12:45:49;8.88;;;3.45;;
39728;SDS011;25402;42.004;23.088;2023-04-01T12:48:22;10.65;;;3.33;;
39728;SDS011;25402;42.004;23.088;2023-04-01T12:51:12;9.98;;;5.00;;
39728;SDS011;25402;42.004;23.088;2023-04-01T12:53:50;10.32;;;3.45;;
39728;SDS011;25402;42.004;23.088;2023-04-01T12:56:22;8.13;;;3.45;;
39728;SDS011;25402;42.004;23.088;2023-04-01T12:59:01;7.93;;;2.83;;
39728;SDS011;25402;42.004;23.088;2023-04-01T13:04:23;6.57;;;2.53;;
39728;SDS011;25402;42.004;23.088;2023-04-01T13:06:58;7.20;;;2.85;;
39728;SDS011;25402;42.004;23.088;2023-04-01T13:09:33;7.40;;;2.47;;
39728;SDS011;25402;42.004;23.088;2023-04-01T13:12:08;10.07;;;2.65;;
39728;SDS011;25402;42.004;23.088;2023-04-01T13:14:54;8.18;;;3.13;;
39728;SDS011;25402;42.004;23.088;2023-04-01T13:17:26;11.65;;;3.80;;
39728;SDS011;25402;42.004;23.088;2023-04-01T13:19:57;11.60;;;3.78;;
39728;SDS011;25402;42.004;23.088;2023-04-01T13:22:25;10.02;;;3.70;;
39728;SDS011;25402;42.004;23.088;2023-04-01T13:24:55;12.20;;;3.72;;
39728;SDS011;25402;42.004;23.088;2023-04-01T13:27:27;13.02;;;3.47;;
39728;SDS011;25402;42.004;23.088;2023-04-01T13:30:02;14.43;;;5.22;;
39728;SDS011;25402;42.004;23.088;2023-04-01T13:32:36;8.60;;;3.95;;
39728;SDS011;25402;42.004;23.088;2023-04-01T13:35:10;7.72;;;3.72;;
39728;SDS011;25402;42.004;23.088;2023-04-01T13:37:51;8.38;;;3.67;;
39728;SDS011;25402;42.004;23.088;2023-04-01T13:40:36;14.82;;;2.33;;
39728;SDS011;25402;42.004;23.088;2023-04-01T13:43:08;6.15;;;2.42;;
39728;SDS011;25402;42.004;23.088;2023-04-01T13:45:42;5.87;;;2.70;;
39728;SDS011;25402;42.004;23.088;2023-04-01T13:48:18;8.80;;;3.05;;
39728;SDS011;25402;42.004;23.088;2023-04-01T13:50:57;7.97;;;3.03;;
39728;SDS011;25402;42.004;23.088;2023-04-01T13:56:14;6.07;;;3.20;;
39728;SDS011;25402;42.004;23.088;2023-04-01T13:58:45;13.55;;;3.67;;
39728;SDS011;25402;42.004;23.088;2023-04-01T14:01:19;8.45;;;3.42;;
39728;SDS011;25402;42.004;23.088;2023-04-01T14:06:35;8.95;;;2.97;;
39728;SDS011;25402;42.004;23.088;2023-04-01T14:11:53;10.48;;;2.85;;
39728;SDS011;25402;42.004;23.088;2023-04-01T14:14:31;9.25;;;2.80;;
39728;SDS011;25402;42.004;23.088;2023-04-01T14:17:08;10.48;;;3.47;;
39728;SDS011;25402;42.004;23.088;2023-04-01T14:19:45;15.45;;;4.57;;
39728;SDS011;25402;42.004;23.088;2023-04-01T14:22:19;10.45;;;4.30;;
39728;SDS011;25402;42.004;23.088;2023-04-01T14:24:58;12.75;;;4.82;;
39728;SDS011;25402;42.004;23.088;2023-04-01T14:27:36;14.32;;;4.80;;
39728;SDS011;25402;42.004;23.088;2023-04-01T14:30:20;17.58;;;4.55;;
39728;SDS011;25402;42.004;23.088;2023-04-01T14:32:56;17.88;;;5.18;;
39728;SDS011;25402;42.004;23.088;2023-04-01T14:35:25;12.23;;;5.15;;
39728;SDS011;25402;42.004;23.088;2023-04-01T14:38:02;11.73;;;5.30;;
39728;SDS011;25402;42.004;23.088;2023-04-01T14:40:40;18.20;;;5.90;;
39728;SDS011;25402;42.004;23.088;2023-04-01T14:43:14;21.98;;;6.95;;
39728;SDS011;25402;42.004;23.088;2023-04-01T14:45:45;27.30;;;9.38;;
39728;SDS011;25402;42.004;23.088;2023-04-01T14:48:21;16.52;;;7.43;;
39728;SDS011;25402;42.004;23.088;2023-04-01T14:50:50;14.77;;;6.22;;
39728;SDS011;25402;42.004;23.088;2023-04-01T14:53:23;21.70;;;7.97;;
39728;SDS011;25402;42.004;23.088;2023-04-01T14:55:53;12.90;;;6.85;;
39728;SDS011;25402;42.004;23.088;2023-04-01T14:58:20;11.43;;;4.50;;
39728;SDS011;25402;42.004;23.088;2023-04-01T15:00:53;10.10;;;4.78;;
39728;SDS011;25402;42.004;23.088;2023-04-01T15:03:24;7.32;;;3.63;;
39728;SDS011;25402;42.004;23.088;2023-04-01T15:05:52;12.05;;;6.00;;
39728;SDS011;25402;42.004;23.088;2023-04-01T15:08:21;8.40;;;4.07;;
39728;SDS011;25402;42.004;23.088;2023-04-01T15:10:52;9.57;;;3.22;;
39728;SDS011;25402;42.004;23.088;2023-04-01T15:13:23;13.60;;;3.83;;
39728;SDS011;25402;42.004;23.088;2023-04-01T15:15:58;8.63;;;3.60;;
39728;SDS011;25402;42.004;23.088;2023-04-01T15:18:30;6.80;;;3.30;;
39728;SDS011;25402;42.004;23.088;2023-04-01T15:23:46;12.50;;;3.15;;
39728;SDS011;25402;42.004;23.088;2023-04-01T15:26:26;10.82;;;3.63;;
39728;SDS011;25402;42.004;23.088;2023-04-01T15:29:01;17.40;;;4.75;;
39728;SDS011;25402;42.004;23.088;2023-04-01T15:31:31;14.95;;;5.18;;
39728;SDS011;25402;42.004;23.088;2023-04-01T15:34:09;12.80;;;5.15;;
39728;SDS011;25402;42.004;23.088;2023-04-01T15:36:44;15.80;;;4.95;;
39728;SDS011;25402;42.004;23.088;2023-04-01T15:39:17;7.32;;;2.95;;
39728;SDS011;25402;42.004;23.088;2023-04-01T15:41:49;7.78;;;2.83;;
39728;SDS011;25402;42.004;23.088;2023-04-01T15:44:27;8.82;;;2.97;;
39728;SDS011;25402;42.004;23.088;2023-04-01T15:49:31;4.07;;;2.08;;
39728;SDS011;25402;42.004;23.088;2023-04-01T15:52:03;8.13;;;2.10;;
39728;SDS011;25402;42.004;23.088;2023-04-01T15:54:33;6.78;;;2.00;;
39728;SDS011;25402;42.004;23.088;2023-04-01T15:57:07;3.97;;;1.95;;
39728;SDS011;25402;42.004;23.088;2023-04-01T15:59:44;4.85;;;2.60;;
39728;SDS011;25402;42.004;23.088;2023-04-01T16:02:15;8.45;;;2.58;;
39728;SDS011;25402;42.004;23.088;2023-04-01T16:04:48;5.68;;;2.20;;
39728;SDS011;25402;42.004;23.088;2023-04-01T16:07:22;11.88;;;2.17;;
39728;SDS011;25402;42.004;23.088;2023-04-01T16:09:53;5.38;;;2.65;;
39728;SDS011;25402;42.004;23.088;2023-04-01T16:12:27;6.88;;;2.30;;
39728;SDS011;25402;42.004;23.088;2023-04-01T16:14:59;3.75;;;1.70;;
39728;SDS011;25402;42.004;23.088;2023-04-01T16:17:35;6.75;;;2.33;;
39728;SDS011;25402;42.004;23.088;2023-04-01T16:20:12;8.10;;;3.15;;
39728;SDS011;25402;42.004;23.088;2023-04-01T16:22:44;7.07;;;3.33;;